sensor_id;sensor_type;location;lat;lon;timestamp;pressure;altitude;pressure_sealevel;temperature;humidity
4858;BME280;58975;51.978;8.472;2023-09-08T00:03:55;100694.66;;;16.75;100.00
4858;BME280;58975;51.978;8.472;2023-09-08T00:08:52;100695.28;;;16.69;100.00
4858;BME280;58975;51.978;8.472;2023-09-08T00:13:48;100686.84;;;16.64;100.00
4858;BME280;58975;51.978;8.472;2023-09-08T00:18:46;100677.06;;;16.63;100.00
4858;BME280;58975;51.978;8.472;2023-09-08T00:23:43;100678.38;;;16.59;100.00
4858;BME280;58975;51.978;8.472;2023-09-08T00:28:39;100672.22;;;16.48;100.00
4858;BME280;58975;51.978;8.472;2023-09-08T00:33:35;100678.59;;;16.47;100.00
4858;BME280;58975;51.978;8.472;2023-09-08T00:38:33;100676.00;;;16.38;100.00
4858;BME280;58975;51.978;8.472;2023-09-08T00:43:30;100675.47;;;16.34;100.00
4858;BME280;58975;51.978;8.472;2023-09-08T00:48:26;100682.75;;;16.24;100.00
4858;BME280;58975;51.978;8.472;2023-09-08T00:53:23;100676.94;;;16.11;100.00
4858;BME280;58975;51.978;8.472;2023-09-08T00:58:20;100682.66;;;15.98;100.00
4858;BME280;58975;51.978;8.472;2023-09-08T01:03:16;100681.09;;;15.96;100.00
4858;BME280;58975;51.978;8.472;2023-09-08T01:08:13;100683.09;;;15.94;100.00
4858;BME280;58975;51.978;8.472;2023-09-08T01:13:10;100678.09;;;15.81;100.00
4858;BME280;58975;51.978;8.472;2023-09-08T01:18:06;100682.06;;;15.77;100.00
4858;BME280;58975;51.978;8.472;2023-09-08T01:28:26;100680.03;;;15.61;100.00
4858;BME280;58975;51.978;8.472;2023-09-08T01:33:23;100681.31;;;15.57;100.00
4858;BME280;58975;51.978;8.472;2023-09-08T01:38:21;100692.50;;;15.53;100.00
4858;BME280;58975;51.978;8.472;2023-09-08T01:43:18;100698.03;;;15.51;100.00
4858;BME280;58975;51.978;8.472;2023-09-08T01:48:14;100687.69;;;15.47;100.00
4858;BME280;58975;51.978;8.472;2023-09-08T01:53:11;100684.38;;;15.35;100.00
4858;BME280;58975;51.978;8.472;2023-09-08T01:58:08;100679.19;;;15.24;100.00
4858;BME280;58975;51.978;8.472;2023-09-08T02:03:04;100689.91;;;15.24;100.00
4858;BME280;58975;51.978;8.472;2023-09-08T02:08:01;100678.28;;;15.33;100.00
4858;BME280;58975;51.978;8.472;2023-09-08T02:12:57;100673.47;;;15.37;100.00
4858;BME280;58975;51.978;8.472;2023-09-08T02:17:54;100676.31;;;15.35;100.00
4858;BME280;58975;51.978;8.472;2023-09-08T02:22:54;100678.59;;;15.30;100.00
4858;BME280;58975;51.978;8.472;2023-09-08T02:27:50;100677.47;;;15.23;100.00
4858;BME280;58975;51.978;8.472;2023-09-08T02:32:47;100681.44;;;15.19;100.00
4858;BME280;58975;51.978;8.472;2023-09-08T02:37:43;100669.88;;;15.19;100.00
4858;BME280;58975;51.978;8.472;2023-09-08T02:42:40;100669.19;;;15.07;100.00
4858;BME280;58975;51.978;8.472;2023-09-08T02:47:36;100671.75;;;14.99;100.00
4858;BME280;58975;51.978;8.472;2023-09-08T02:52:33;100670.47;;;15.03;100.00
4858;BME280;58975;51.978;8.472;2023-09-08T02:57:29;100673.59;;;15.08;100.00
4858;BME280;58975;51.978;8.472;2023-09-08T03:02:26;100681.34;;;15.11;100.00
4858;BME280;58975;51.978;8.472;2023-09-08T03:07:23;100682.31;;;15.10;100.00
4858;BME280;58975;51.978;8.472;2023-09-08T03:12:19;100676.69;;;15.13;100.00
4858;BME280;58975;51.978;8.472;2023-09-08T03:17:16;100677.53;;;15.04;100.00
4858;BME280;58975;51.978;8.472;2023-09-08T03:22:12;100680.66;;;14.99;100.00
4858;BME280;58975;51.978;8.472;2023-09-08T03:27:09;100675.16;;;14.91;100.00
4858;BME280;58975;51.978;8.472;2023-09-08T03:32:05;100666.56;;;14.88;100.00
4858;BME280;58975;51.978;8.472;2023-09-08T03:37:02;100667.16;;;14.82;100.00
4858;BME280;58975;51.978;8.472;2023-09-08T03:41:59;100663.06;;;14.78;100.00
4858;BME280;58975;51.978;8.472;2023-09-08T03:46:56;100665.47;;;14.81;100.00
4858;BME280;58975;51.978;8.472;2023-09-08T03:51:52;100669.00;;;14.81;100.00
4858;BME280;58975;51.978;8.472;2023-09-08T03:56:49;100666.69;;;14.86;100.00
4858;BME280;58975;51.978;8.472;2023-09-08T04:01:45;100674.47;;;14.80;100.00
4858;BME280;58975;51.978;8.472;2023-09-08T04:06:41;100663.50;;;14.73;100.00
4858;BME280;58975;51.978;8.472;2023-09-08T04:11:38;100658.69;;;14.77;100.00
4858;BME280;58975;51.978;8.472;2023-09-08T04:16:34;100660.94;;;14.72;100.00
4858;BME280;58975;51.978;8.472;2023-09-08T04:21:31;100666.19;;;14.73;100.00
4858;BME280;58975;51.978;8.472;2023-09-08T04:26:27;100662.66;;;14.73;100.00
4858;BME280;58975;51.978;8.472;2023-09-08T04:31:24;100677.59;;;14.75;100.00
4858;BME280;58975;51.978;8.472;2023-09-08T04:36:20;100671.38;;;14.75;100.00
4858;BME280;58975;51.978;8.472;2023-09-08T04:41:17;100671.13;;;14.68;100.00
4858;BME280;58975;51.978;8.472;2023-09-08T04:46:13;100671.97;;;14.68;100.00
4858;BME280;58975;51.978;8.472;2023-09-08T04:51:09;100666.59;;;14.68;100.00
4858;BME280;58975;51.978;8.472;2023-09-08T04:56:06;100663.75;;;14.80;100.00
4858;BME280;58975;51.978;8.472;2023-09-08T05:01:02;100668.28;;;14.89;100.00
4858;BME280;58975;51.978;8.472;2023-09-08T05:05:59;100672.75;;;14.98;100.00
4858;BME280;58975;51.978;8.472;2023-09-08T05:10:57;100664.66;;;15.17;100.00
4858;BME280;58975;51.978;8.472;2023-09-08T05:15:54;100666.13;;;15.39;100.00
4858;BME280;58975;51.978;8.472;2023-09-08T05:20:56;100659.53;;;15.60;100.00
4858;BME280;58975;51.978;8.472;2023-09-08T05:25:53;100664.09;;;16.40;100.00
4858;BME280;58975;51.978;8.472;2023-09-08T05:30:53;100645.25;;;17.27;100.00
4858;BME280;58975;51.978;8.472;2023-09-08T05:35:50;100637.16;;;18.43;100.00
4858;BME280;58975;51.978;8.472;2023-09-08T05:40:47;100635.63;;;18.98;100.00
4858;BME280;58975;51.978;8.472;2023-09-08T05:45:43;100630.97;;;19.47;100.00
4858;BME280;58975;51.978;8.472;2023-09-08T05:50:40;100622.91;;;20.00;100.00
4858;BME280;58975;51.978;8.472;2023-09-08T05:55:36;100627.25;;;20.55;100.00
4858;BME280;58975;51.978;8.472;2023-09-08T06:00:33;100632.06;;;21.19;100.00
4858;BME280;58975;51.978;8.472;2023-09-08T06:05:29;100635.72;;;21.12;100.00
4858;BME280;58975;51.978;8.472;2023-09-08T06:10:26;100632.28;;;20.95;100.00
4858;BME280;58975;51.978;8.472;2023-09-08T06:15:23;100637.00;;;20.64;100.00
4858;BME280;58975;51.978;8.472;2023-09-08T06:20:19;100633.78;;;20.46;100.00
4858;BME280;58975;51.978;8.472;2023-09-08T06:25:16;100627.47;;;20.53;100.00
4858;BME280;58975;51.978;8.472;2023-09-08T06:30:12;100620.94;;;20.62;100.00
4858;BME280;58975;51.978;8.472;2023-09-08T06:35:11;100621.94;;;20.84;100.00
4858;BME280;58975;51.978;8.472;2023-09-08T06:40:07;100618.63;;;21.11;100.00
4858;BME280;58975;51.978;8.472;2023-09-08T06:45:05;100627.28;;;21.21;100.00
4858;BME280;58975;51.978;8.472;2023-09-08T06:50:01;100630.94;;;21.58;100.00
4858;BME280;58975;51.978;8.472;2023-09-08T06:54:58;100625.59;;;21.64;100.00
4858;BME280;58975;51.978;8.472;2023-09-08T06:59:54;100639.97;;;21.94;100.00
4858;BME280;58975;51.978;8.472;2023-09-08T07:04:51;100636.25;;;22.16;100.00
4858;BME280;58975;51.978;8.472;2023-09-08T07:09:48;100641.34;;;22.47;100.00
4858;BME280;58975;51.978;8.472;2023-09-08T07:14:44;100638.91;;;22.74;100.00
4858;BME280;58975;51.978;8.472;2023-09-08T07:19:41;100641.53;;;22.88;100.00
4858;BME280;58975;51.978;8.472;2023-09-08T07:24:37;100642.50;;;23.08;100.00
4858;BME280;58975;51.978;8.472;2023-09-08T07:29:33;100640.94;;;23.21;100.00
4858;BME280;58975;51.978;8.472;2023-09-08T07:34:30;100642.53;;;23.43;100.00
4858;BME280;58975;51.978;8.472;2023-09-08T07:39:27;100631.19;;;23.74;100.00
4858;BME280;58975;51.978;8.472;2023-09-08T07:44:23;100642.53;;;23.90;100.00
4858;BME280;58975;51.978;8.472;2023-09-08T07:49:19;100641.91;;;23.88;100.00
4858;BME280;58975;51.978;8.472;2023-09-08T07:54:16;100630.88;;;24.10;100.00
4858;BME280;58975;51.978;8.472;2023-09-08T07:59:15;100642.25;;;24.26;100.00
4858;BME280;58975;51.978;8.472;2023-09-08T08:04:12;100634.31;;;24.38;100.00
4858;BME280;58975;51.978;8.472;2023-09-08T08:09:09;100635.19;;;24.58;100.00
4858;BME280;58975;51.978;8.472;2023-09-08T08:14:06;100632.66;;;24.63;100.00
4858;BME280;58975;51.978;8.472;2023-09-08T08:19:03;100642.31;;;24.92;97.43
4858;BME280;58975;51.978;8.472;2023-09-08T08:23:59;100638.94;;;25.10;92.25
4858;BME280;58975;51.978;8.472;2023-09-08T08:28:56;100638.44;;;25.46;96.55
4858;BME280;58975;51.978;8.472;2023-09-08T08:33:52;100639.69;;;25.56;91.38
4858;BME280;58975;51.978;8.472;2023-09-08T08:38:49;100634.34;;;25.87;88.54
4858;BME280;58975;51.978;8.472;2023-09-08T08:43:47;100631.75;;;25.99;78.34
4858;BME280;58975;51.978;8.472;2023-09-08T08:48:45;100626.81;;;26.21;82.45
4858;BME280;58975;51.978;8.472;2023-09-08T08:53:51;100630.06;;;26.67;80.13
4858;BME280;58975;51.978;8.472;2023-09-08T08:58:49;100621.78;;;26.74;75.57
4858;BME280;58975;51.978;8.472;2023-09-08T09:03:49;100626.72;;;26.90;69.96
4858;BME280;58975;51.978;8.472;2023-09-08T09:08:46;100626.06;;;26.95;73.18
4858;BME280;58975;51.978;8.472;2023-09-08T09:13:43;100627.22;;;27.05;69.85
4858;BME280;58975;51.978;8.472;2023-09-08T09:23:49;100625.31;;;27.67;75.71
4858;BME280;58975;51.978;8.472;2023-09-08T09:28:49;100620.69;;;27.97;69.83
4858;BME280;58975;51.978;8.472;2023-09-08T09:33:48;100618.09;;;28.02;64.69
4858;BME280;58975;51.978;8.472;2023-09-08T09:39:00;100608.91;;;27.97;66.69
4858;BME280;58975;51.978;8.472;2023-09-08T09:43:57;100609.81;;;28.09;65.49
4858;BME280;58975;51.978;8.472;2023-09-08T09:48:54;100604.34;;;28.09;64.91
4858;BME280;58975;51.978;8.472;2023-09-08T09:53:54;100600.53;;;28.10;68.42
4858;BME280;58975;51.978;8.472;2023-09-08T09:58:52;100592.88;;;28.42;66.42
4858;BME280;58975;51.978;8.472;2023-09-08T10:03:50;100600.53;;;28.63;62.14
4858;BME280;58975;51.978;8.472;2023-09-08T10:08:50;100596.75;;;28.99;64.44
4858;BME280;58975;51.978;8.472;2023-09-08T10:13:50;100591.03;;;29.24;60.81
4858;BME280;58975;51.978;8.472;2023-09-08T10:18:51;100594.00;;;29.22;58.06
4858;BME280;58975;51.978;8.472;2023-09-08T10:23:59;100582.13;;;29.28;59.67
4858;BME280;58975;51.978;8.472;2023-09-08T10:29:01;100576.13;;;29.31;58.47
4858;BME280;58975;51.978;8.472;2023-09-08T10:33:58;100577.44;;;29.29;56.23
4858;BME280;58975;51.978;8.472;2023-09-08T10:44:28;100578.50;;;29.39;54.38
4858;BME280;58975;51.978;8.472;2023-09-08T10:49:34;100574.19;;;29.43;54.53
4858;BME280;58975;51.978;8.472;2023-09-08T10:54:45;100570.44;;;29.61;55.39
4858;BME280;58975;51.978;8.472;2023-09-08T10:59:45;100571.44;;;29.83;52.28
4858;BME280;58975;51.978;8.472;2023-09-08T11:04:45;100570.31;;;29.96;48.36
4858;BME280;58975;51.978;8.472;2023-09-08T11:09:41;100584.69;;;30.31;48.01
4858;BME280;58975;51.978;8.472;2023-09-08T11:14:39;100576.84;;;30.51;49.65
4858;BME280;58975;51.978;8.472;2023-09-08T11:19:49;100579.84;;;30.50;48.02
4858;BME280;58975;51.978;8.472;2023-09-08T11:24:46;100574.28;;;30.62;45.60
4858;BME280;58975;51.978;8.472;2023-09-08T11:29:43;100565.28;;;30.49;45.75
4858;BME280;58975;51.978;8.472;2023-09-08T11:34:40;100568.78;;;30.62;48.36
4858;BME280;58975;51.978;8.472;2023-09-08T11:39:47;100561.00;;;30.59;45.54
4858;BME280;58975;51.978;8.472;2023-09-08T11:44:44;100559.94;;;30.60;46.33
4858;BME280;58975;51.978;8.472;2023-09-08T11:49:40;100548.56;;;30.39;48.71
4858;BME280;58975;51.978;8.472;2023-09-08T11:54:37;100547.84;;;30.44;49.94
4858;BME280;58975;51.978;8.472;2023-09-08T11:59:55;100546.16;;;30.26;48.22
4858;BME280;58975;51.978;8.472;2023-09-08T12:04:53;100544.09;;;30.33;49.24
4858;BME280;58975;51.978;8.472;2023-09-08T12:09:50;100535.19;;;30.43;49.35
4858;BME280;58975;51.978;8.472;2023-09-08T12:14:46;100535.28;;;30.65;45.16
4858;BME280;58975;51.978;8.472;2023-09-08T12:19:43;100535.59;;;30.85;46.98
4858;BME280;58975;51.978;8.472;2023-09-08T12:29:58;100535.78;;;30.62;46.00
4858;BME280;58975;51.978;8.472;2023-09-08T12:34:55;100525.84;;;30.77;46.88
4858;BME280;58975;51.978;8.472;2023-09-08T12:39:52;100523.34;;;30.76;45.84
4858;BME280;58975;51.978;8.472;2023-09-08T12:44:48;100524.47;;;30.96;46.18
4858;BME280;58975;51.978;8.472;2023-09-08T12:49:46;100528.47;;;31.06;45.89
4858;BME280;58975;51.978;8.472;2023-09-08T12:54:42;100514.41;;;31.24;44.83
4858;BME280;58975;51.978;8.472;2023-09-08T12:59:39;100511.78;;;31.56;47.15
4858;BME280;58975;51.978;8.472;2023-09-08T13:04:35;100507.63;;;31.53;44.10
4858;BME280;58975;51.978;8.472;2023-09-08T13:09:32;100501.41;;;31.19;44.29
4858;BME280;58975;51.978;8.472;2023-09-08T13:14:28;100503.47;;;31.07;45.15
4858;BME280;58975;51.978;8.472;2023-09-08T13:19:25;100496.66;;;30.93;45.05
4858;BME280;58975;51.978;8.472;2023-09-08T13:24:21;100499.13;;;30.94;44.36
4858;BME280;58975;51.978;8.472;2023-09-08T13:29:18;100497.72;;;30.92;46.38
4858;BME280;58975;51.978;8.472;2023-09-08T13:34:14;100488.66;;;30.91;45.19
4858;BME280;58975;51.978;8.472;2023-09-08T13:39:11;100480.91;;;31.05;44.23
4858;BME280;58975;51.978;8.472;2023-09-08T13:44:08;100479.34;;;30.76;44.83
4858;BME280;58975;51.978;8.472;2023-09-08T13:49:04;100482.81;;;30.88;46.04
4858;BME280;58975;51.978;8.472;2023-09-08T13:54:02;100469.72;;;30.95;45.13
4858;BME280;58975;51.978;8.472;2023-09-08T13:59:00;100469.94;;;31.10;44.42
4858;BME280;58975;51.978;8.472;2023-09-08T14:03:59;100471.78;;;31.48;45.64
4858;BME280;58975;51.978;8.472;2023-09-08T14:09:01;100477.16;;;31.38;45.18
4858;BME280;58975;51.978;8.472;2023-09-08T14:14:18;100472.09;;;31.52;45.33
4858;BME280;58975;51.978;8.472;2023-09-08T14:19:15;100469.47;;;31.40;46.19
4858;BME280;58975;51.978;8.472;2023-09-08T14:24:11;100467.50;;;31.35;46.88
4858;BME280;58975;51.978;8.472;2023-09-08T14:29:08;100464.00;;;31.67;44.57
4858;BME280;58975;51.978;8.472;2023-09-08T14:34:04;100464.16;;;31.55;45.95
4858;BME280;58975;51.978;8.472;2023-09-08T14:39:00;100459.22;;;31.57;43.17
4858;BME280;58975;51.978;8.472;2023-09-08T14:43:57;100461.63;;;31.75;43.10
4858;BME280;58975;51.978;8.472;2023-09-08T14:48:54;100454.28;;;31.59;44.90
4858;BME280;58975;51.978;8.472;2023-09-08T14:53:51;100465.22;;;31.81;43.58
4858;BME280;58975;51.978;8.472;2023-09-08T14:58:48;100461.69;;;31.85;43.55
4858;BME280;58975;51.978;8.472;2023-09-08T15:03:45;100466.91;;;31.82;44.23
4858;BME280;58975;51.978;8.472;2023-09-08T15:08:41;100464.69;;;31.79;44.68
4858;BME280;58975;51.978;8.472;2023-09-08T15:13:39;100459.13;;;31.74;44.90
4858;BME280;58975;51.978;8.472;2023-09-08T15:18:35;100448.34;;;31.72;45.77
4858;BME280;58975;51.978;8.472;2023-09-08T15:23:32;100453.22;;;31.38;45.69
4858;BME280;58975;51.978;8.472;2023-09-08T15:28:29;100448.59;;;31.44;47.55
4858;BME280;58975;51.978;8.472;2023-09-08T15:33:26;100440.22;;;31.56;48.31
4858;BME280;58975;51.978;8.472;2023-09-08T15:38:22;100435.69;;;31.71;48.01
4858;BME280;58975;51.978;8.472;2023-09-08T15:43:19;100440.09;;;31.72;46.92
4858;BME280;58975;51.978;8.472;2023-09-08T15:48:15;100428.81;;;31.47;48.01
4858;BME280;58975;51.978;8.472;2023-09-08T15:53:13;100436.63;;;31.33;48.01
4858;BME280;58975;51.978;8.472;2023-09-08T15:58:09;100438.81;;;31.31;48.89
4858;BME280;58975;51.978;8.472;2023-09-08T16:03:06;100436.28;;;31.03;48.36
4858;BME280;58975;51.978;8.472;2023-09-08T16:08:03;100433.78;;;31.02;50.41
4858;BME280;58975;51.978;8.472;2023-09-08T16:13:00;100428.84;;;31.25;49.38
4858;BME280;58975;51.978;8.472;2023-09-08T16:17:57;100422.66;;;31.62;48.31
4858;BME280;58975;51.978;8.472;2023-09-08T16:22:55;100429.22;;;31.87;50.72
4858;BME280;58975;51.978;8.472;2023-09-08T16:27:52;100434.13;;;32.12;50.72
4858;BME280;58975;51.978;8.472;2023-09-08T16:32:48;100422.94;;;32.66;50.14
4858;BME280;58975;51.978;8.472;2023-09-08T16:37:45;100428.56;;;34.29;47.57
4858;BME280;58975;51.978;8.472;2023-09-08T16:42:41;100423.97;;;38.28;38.89
4858;BME280;58975;51.978;8.472;2023-09-08T16:47:38;100425.06;;;41.09;34.29
4858;BME280;58975;51.978;8.472;2023-09-08T16:52:34;100425.31;;;42.54;31.46
4858;BME280;58975;51.978;8.472;2023-09-08T16:57:31;100430.56;;;42.64;31.86
4858;BME280;58975;51.978;8.472;2023-09-08T17:02:27;100432.16;;;42.18;32.30
4858;BME280;58975;51.978;8.472;2023-09-08T17:07:25;100422.81;;;41.80;33.13
4858;BME280;58975;51.978;8.472;2023-09-08T17:12:22;100434.03;;;40.97;34.57
4858;BME280;58975;51.978;8.472;2023-09-08T17:17:19;100425.16;;;39.94;36.07
4858;BME280;58975;51.978;8.472;2023-09-08T17:22:16;100424.03;;;38.42;39.09
4858;BME280;58975;51.978;8.472;2023-09-08T17:27:12;100431.84;;;34.46;45.37
4858;BME280;58975;51.978;8.472;2023-09-08T17:32:09;100441.53;;;31.26;54.28
4858;BME280;58975;51.978;8.472;2023-09-08T17:37:05;100435.75;;;29.23;67.69
4858;BME280;58975;51.978;8.472;2023-09-08T17:42:02;100441.06;;;27.85;83.11
4858;BME280;58975;51.978;8.472;2023-09-08T17:46:58;100442.19;;;26.88;97.20
4858;BME280;58975;51.978;8.472;2023-09-08T17:51:56;100442.84;;;25.97;100.00
4858;BME280;58975;51.978;8.472;2023-09-08T17:56:53;100442.34;;;25.06;100.00
4858;BME280;58975;51.978;8.472;2023-09-08T18:01:49;100440.81;;;24.53;100.00
4858;BME280;58975;51.978;8.472;2023-09-08T18:06:46;100445.91;;;24.23;100.00
4858;BME280;58975;51.978;8.472;2023-09-08T18:11:42;100448.59;;;23.96;100.00
4858;BME280;58975;51.978;8.472;2023-09-08T18:16:38;100450.44;;;23.63;100.00
4858;BME280;58975;51.978;8.472;2023-09-08T18:21:35;100459.31;;;23.31;100.00
4858;BME280;58975;51.978;8.472;2023-09-08T18:31:28;100462.72;;;22.85;100.00
4858;BME280;58975;51.978;8.472;2023-09-08T18:36:27;100466.06;;;22.59;100.00
4858;BME280;58975;51.978;8.472;2023-09-08T18:41:24;100464.94;;;22.47;100.00
4858;BME280;58975;51.978;8.472;2023-09-08T18:46:21;100464.34;;;22.24;100.00
4858;BME280;58975;51.978;8.472;2023-09-08T18:51:17;100470.22;;;22.00;100.00
4858;BME280;58975;51.978;8.472;2023-09-08T18:56:14;100476.47;;;21.79;100.00
4858;BME280;58975;51.978;8.472;2023-09-08T19:01:13;100467.94;;;21.61;100.00
4858;BME280;58975;51.978;8.472;2023-09-08T19:06:10;100477.09;;;21.39;100.00
4858;BME280;58975;51.978;8.472;2023-09-08T19:11:06;100473.19;;;21.27;100.00
4858;BME280;58975;51.978;8.472;2023-09-08T19:16:03;100472.38;;;21.11;100.00
4858;BME280;58975;51.978;8.472;2023-09-08T19:20:59;100473.03;;;20.99;100.00
4858;BME280;58975;51.978;8.472;2023-09-08T19:25:56;100475.59;;;20.86;100.00
4858;BME280;58975;51.978;8.472;2023-09-08T19:30:52;100467.81;;;20.68;100.00
4858;BME280;58975;51.978;8.472;2023-09-08T19:35:49;100461.56;;;20.53;100.00
4858;BME280;58975;51.978;8.472;2023-09-08T19:40:45;100465.59;;;20.42;100.00
4858;BME280;58975;51.978;8.472;2023-09-08T19:45:41;100466.78;;;20.40;100.00
4858;BME280;58975;51.978;8.472;2023-09-08T19:50:38;100462.69;;;20.44;100.00
4858;BME280;58975;51.978;8.472;2023-09-08T19:55:34;100468.00;;;20.37;100.00
4858;BME280;58975;51.978;8.472;2023-09-08T20:00:31;100461.84;;;20.28;100.00
4858;BME280;58975;51.978;8.472;2023-09-08T20:05:27;100464.16;;;20.32;100.00
4858;BME280;58975;51.978;8.472;2023-09-08T20:10:24;100461.50;;;20.23;100.00
4858;BME280;58975;51.978;8.472;2023-09-08T20:15:20;100463.66;;;20.13;100.00
4858;BME280;58975;51.978;8.472;2023-09-08T20:20:17;100463.88;;;20.04;100.00
4858;BME280;58975;51.978;8.472;2023-09-08T20:25:13;100452.91;;;20.05;100.00
4858;BME280;58975;51.978;8.472;2023-09-08T20:30:10;100452.91;;;20.05;100.00
4858;BME280;58975;51.978;8.472;2023-09-08T20:35:06;100455.69;;;19.97;100.00
4858;BME280;58975;51.978;8.472;2023-09-08T20:40:05;100448.25;;;19.99;100.00
4858;BME280;58975;51.978;8.472;2023-09-08T20:45:02;100450.56;;;20.02;100.00
4858;BME280;58975;51.978;8.472;2023-09-08T20:49:59;100460.25;;;19.97;100.00
4858;BME280;58975;51.978;8.472;2023-09-08T20:54:55;100459.59;;;19.95;100.00
4858;BME280;58975;51.978;8.472;2023-09-08T20:59:52;100463.16;;;19.95;100.00
4858;BME280;58975;51.978;8.472;2023-09-08T21:04:48;100467.72;;;19.95;100.00
4858;BME280;58975;51.978;8.472;2023-09-08T21:09:45;100461.44;;;19.94;100.00
4858;BME280;58975;51.978;8.472;2023-09-08T21:14:41;100456.91;;;19.95;100.00
4858;BME280;58975;51.978;8.472;2023-09-08T21:19:38;100460.38;;;19.80;100.00
4858;BME280;58975;51.978;8.472;2023-09-08T21:24:34;100465.66;;;19.74;100.00
4858;BME280;58975;51.978;8.472;2023-09-08T21:29:30;100457.78;;;19.64;100.00
4858;BME280;58975;51.978;8.472;2023-09-08T21:34:27;100454.88;;;19.51;100.00
4858;BME280;58975;51.978;8.472;2023-09-08T21:39:23;100457.81;;;19.33;100.00
4858;BME280;58975;51.978;8.472;2023-09-08T21:44:20;100464.81;;;19.20;100.00
4858;BME280;58975;51.978;8.472;2023-09-08T21:49:16;100465.19;;;19.17;100.00
4858;BME280;58975;51.978;8.472;2023-09-08T21:54:13;100459.69;;;19.02;100.00
4858;BME280;58975;51.978;8.472;2023-09-08T21:59:09;100473.22;;;18.94;100.00
4858;BME280;58975;51.978;8.472;2023-09-08T22:04:06;100466.19;;;18.85;100.00
4858;BME280;58975;51.978;8.472;2023-09-08T22:09:04;100468.06;;;18.76;100.00
4858;BME280;58975;51.978;8.472;2023-09-08T22:14:01;100468.28;;;18.59;100.00
4858;BME280;58975;51.978;8.472;2023-09-08T22:18:57;100463.91;;;18.50;100.00
4858;BME280;58975;51.978;8.472;2023-09-08T22:23:55;100475.38;;;18.43;100.00
4858;BME280;58975;51.978;8.472;2023-09-08T22:28:52;100476.75;;;18.31;100.00
4858;BME280;58975;51.978;8.472;2023-09-08T22:33:48;100478.44;;;18.24;100.00
4858;BME280;58975;51.978;8.472;2023-09-08T22:38:46;100476.09;;;18.21;100.00
4858;BME280;58975;51.978;8.472;2023-09-08T22:43:43;100480.28;;;18.24;100.00
4858;BME280;58975;51.978;8.472;2023-09-08T22:48:39;100472.22;;;18.16;100.00
4858;BME280;58975;51.978;8.472;2023-09-08T22:53:36;100473.75;;;18.10;100.00
4858;BME280;58975;51.978;8.472;2023-09-08T22:58:39;100478.81;;;18.05;100.00
4858;BME280;58975;51.978;8.472;2023-09-08T23:03:36;100478.47;;;18.00;100.00
4858;BME280;58975;51.978;8.472;2023-09-08T23:08:33;100482.84;;;18.01;100.00
4858;BME280;58975;51.978;8.472;2023-09-08T23:13:30;100478.47;;;17.84;100.00
4858;BME280;58975;51.978;8.472;2023-09-08T23:18:26;100481.84;;;17.70;100.00
4858;BME280;58975;51.978;8.472;2023-09-08T23:23:23;100481.44;;;17.57;100.00
4858;BME280;58975;51.978;8.472;2023-09-08T23:28:19;100483.09;;;17.41;100.00
4858;BME280;58975;51.978;8.472;2023-09-08T23:33:16;100484.28;;;17.39;100.00
4858;BME280;58975;51.978;8.472;2023-09-08T23:38:12;100479.41;;;17.42;100.00
4858;BME280;58975;51.978;8.472;2023-09-08T23:43:09;100479.72;;;17.31;100.00
4858;BME280;58975;51.978;8.472;2023-09-08T23:48:05;100468.94;;;17.23;100.00
4858;BME280;58975;51.978;8.472;2023-09-08T23:53:02;100468.56;;;17.10;100.00
4858;BME280;58975;51.978;8.472;2023-09-08T23:58:00;100481.69;;;17.05;100.00
